Saratoga, CA

6:27 AM PST on January 29, 2015 (GMT -0800)
Scotland Dr. near Glasgow Dr. | Change Station
CLOSE
Current Station
Personal Weather Station
Location: Saratoga, CA
Elevation: 375 ft
Nearby Weather Stations

Elev 375 ft 37.27 °N, 122.02 °W | Updated 2 seconds ago

Partly Cloudy
Partly Cloudy
45.2 °F
Feels Like 45 °F
N
0.0
Wind Variable Wind from West
Gusts 0.0 mph

Today
High -- | Low -- °F
--% Chance of Precip.
Yesterday
High -- | Low -- °F
Precip. -- in
7:13 AM 5:29 PM
Waxing Gibbous, 74% visible
Pressure 30.14 in
Visibility 7.0 miles
Clouds Few 100 ft
Scattered Clouds 500 ft
Mostly Cloudy 800 ft
Windchill 45 °F
Dew Point 42 °F
Humidity 89%
Rainfall 0.00 in
Snow Depth Not available.
UV 0.0 out of 12
Pollen 5.20 out of 12
Air Quality Not available.
Flu Activity Not available.
SPECI KSJC 291400Z 00000KT 7SM FEW001 SCT005 BKN008 07/05 A3014 RMK AO2

More Conditions Fewer Conditions

Pressure 30.14 in
Visibility 7.0 miles
Clouds Few 100 ft
Scattered Clouds 500 ft
Mostly Cloudy 800 ft
Windchill 45 °F
Dew Point 42 °F
Humidity 89%
Rainfall 0.00 in
Snow Depth Not available.
UV 0.0 out of 12
Pollen 5.20 out of 12
Air Quality Not available.
Flu Activity Not available.
SPECI KSJC 291400Z 00000KT 7SM FEW001 SCT005 BKN008 07/05 A3014 RMK AO2

More Conditions Fewer Conditions

10-Day Weather Forecast

Almanac

Astronomy

Jan. 29, 2015 Rise Set
Actual Time
Civil Twilight
Nautical Twilight
Astronomical Twilight
Moon
Length of Visible Light
Length of Day
Tomorrow will be .
, % of the Moon is Illuminated

Today's Extremes

State Highs State Lows

Community

WunderPhotos

Upload Photos

1,791,434 photos uploaded!

WunderBlogs® & News

Nearby

Air Quality

  Air Quality AQ Index Pollutant
Not available.

Snow Depth

Station Depth Elevation

Earthquake Activity

City Distance Mag. Time & Date
Minimum magnitude displayed is 2.5.

Coastal Water Temperatures

Place Temperature

Nearby Weather Stations